createdAt,value
2019-01-19T00:00:29.300Z,0.69
2019-01-19T00:01:39.115Z,0.71
2019-01-19T00:02:48.913Z,0.69
2019-01-19T00:03:58.988Z,0.67
2019-01-19T00:05:15.367Z,0.74
2019-01-19T00:06:25.473Z,0.72
2019-01-19T00:07:35.545Z,0.67
2019-01-19T00:08:45.606Z,0.74
2019-01-19T00:09:55.953Z,0.71
2019-01-19T00:11:06.152Z,0.67
2019-01-19T00:12:16.436Z,0.57
2019-01-19T00:13:26.234Z,0.6
2019-01-19T00:14:36.303Z,0.63
2019-01-19T00:15:46.380Z,0.61
2019-01-19T00:16:56.576Z,0.53
2019-01-19T00:18:06.659Z,0.57
2019-01-19T00:19:16.702Z,0.52
2019-01-19T00:20:26.505Z,0.57
2019-01-19T00:21:36.581Z,0.6
2019-01-19T00:22:46.626Z,0.61
2019-01-19T00:23:56.444Z,0.61
2019-01-19T00:25:06.519Z,0.64
2019-01-19T00:26:16.690Z,0.56
2019-01-19T00:27:26.505Z,0.56
2019-01-19T00:28:36.355Z,0.5
2019-01-19T00:29:46.448Z,0.45
2019-01-19T00:30:56.798Z,0.44
2019-01-19T00:32:06.883Z,0.5
2019-01-19T00:33:16.948Z,0.48
2019-01-19T00:34:33.794Z,0.37
2019-01-19T00:35:44.159Z,0.39
2019-01-19T00:36:54.228Z,0.47
2019-01-19T00:38:04.304Z,0.41
2019-01-19T00:39:14.378Z,0.38
2019-01-19T00:40:24.505Z,0.42
2019-01-19T00:41:35.002Z,0.38
2019-01-19T00:42:45.075Z,0.35
2019-01-19T00:43:54.888Z,0.35
2019-01-19T00:45:04.999Z,0.31
2019-01-19T00:46:14.793Z,0.34
2019-01-19T00:47:24.910Z,0.31
2019-01-19T00:48:34.965Z,0.27
2019-01-19T00:49:45.019Z,0.32
2019-01-19T00:50:55.543Z,0.24
2019-01-19T00:52:05.911Z,0.34
2019-01-19T00:53:15.948Z,0.24
2019-01-19T00:54:26.010Z,0.27
2019-01-19T00:55:35.818Z,0.24
2019-01-19T00:56:45.909Z,0.21
2019-01-19T00:57:55.737Z,0.2
2019-01-19T00:59:09.060Z,0.19
2019-01-19T01:00:19.123Z,0.23
2019-01-19T01:01:29.196Z,0.19
2019-01-19T01:02:39.262Z,0.24
2019-01-19T01:03:49.331Z,0.16
2019-01-19T01:04:59.404Z,0.23
2019-01-19T01:06:09.753Z,0.26
2019-01-19T01:07:19.815Z,0.17
2019-01-19T01:08:29.943Z,0.21
2019-01-19T01:09:39.797Z,0.09
2019-01-19T01:10:49.872Z,0.16
2019-01-19T01:11:59.954Z,0.13
2019-01-19T01:13:10.009Z,0.2
2019-01-19T01:14:20.301Z,0.17
2019-01-19T01:15:30.383Z,0.13
2019-01-19T01:16:40.446Z,0.09
2019-01-19T01:17:50.514Z,0.08
2019-01-19T01:19:00.559Z,0.02
2019-01-19T01:20:10.864Z,0.09
2019-01-19T01:21:21.017Z,0.06
2019-01-19T01:22:31.082Z,0.06
2019-01-19T01:23:41.140Z,0.08
2019-01-19T01:24:51.183Z,0.13
2019-01-19T01:26:00.976Z,0.09
2019-01-19T01:27:11.026Z,0.16
2019-01-19T01:28:21.125Z,0.19
2019-01-19T01:29:31.178Z,0.09
2019-01-19T01:30:41.240Z,0.16
2019-01-19T01:31:51.355Z,0.16
2019-01-19T01:33:01.502Z,0.1
2019-01-19T01:34:11.580Z,0.13
2019-01-19T01:35:21.641Z,0.09
2019-01-19T01:36:38.053Z,0.03
2019-01-19T01:37:48.090Z,0.05
2019-01-19T01:38:58.361Z,0.05
2019-01-19T01:40:09.179Z,0.02
2019-01-19T01:41:19.020Z,0.03
2019-01-19T01:42:29.064Z,-0.02
2019-01-19T01:43:39.112Z,-0.01
2019-01-19T01:44:49.169Z,0.01
2019-01-19T01:45:59.458Z,0.08
2019-01-19T01:47:10.420Z,0.05
2019-01-19T01:48:20.228Z,0.01
2019-01-19T01:49:30.344Z,-0.04
2019-01-19T01:50:40.393Z,-0.12
2019-01-19T01:51:50.447Z,-0.07
2019-01-19T01:53:00.553Z,-0.1
2019-01-19T01:54:10.624Z,-0.07
2019-01-19T01:55:20.428Z,-0.16
2019-01-19T01:56:30.529Z,-0.22
2019-01-19T01:57:40.615Z,-0.27
2019-01-19T01:58:50.670Z,-0.18
2019-01-19T02:00:03.262Z,-0.18
2019-01-19T02:01:13.558Z,-0.19
2019-01-19T02:02:23.628Z,-0.16
2019-01-19T02:03:33.933Z,-0.18
2019-01-19T02:04:44.015Z,-0.15
2019-01-19T02:05:54.086Z,-0.22
2019-01-19T02:07:04.193Z,-0.23
2019-01-19T02:08:13.996Z,-0.22
2019-01-19T02:09:24.050Z,-0.2
2019-01-19T02:10:34.336Z,-0.22
2019-01-19T02:11:44.497Z,-0.18
2019-01-19T02:12:54.569Z,-0.22
2019-01-19T02:14:04.982Z,-0.2
2019-01-19T02:15:15.055Z,-0.18
2019-01-19T02:16:25.125Z,-0.22
2019-01-19T02:17:35.180Z,-0.23
2019-01-19T02:18:45.257Z,-0.25
2019-01-19T02:19:55.649Z,-0.2
2019-01-19T02:21:06.348Z,-0.16
2019-01-19T02:22:16.167Z,-0.27
2019-01-19T02:23:26.218Z,-0.23
2019-01-19T02:24:36.273Z,-0.4
2019-01-19T02:25:46.371Z,-0.33
2019-01-19T02:26:56.207Z,-0.18
2019-01-19T02:28:06.488Z,-0.23
2019-01-19T02:29:16.556Z,-0.23
2019-01-19T02:30:26.684Z,-0.31
2019-01-19T02:31:37.114Z,-0.36
2019-01-19T02:32:46.941Z,-0.22
2019-01-19T02:33:57.046Z,-0.31
2019-01-19T02:35:06.966Z,-0.28
2019-01-19T02:36:17.727Z,-0.31
2019-01-19T02:37:27.962Z,-0.33
2019-01-19T02:38:38.024Z,-0.37
2019-01-19T02:39:48.197Z,-0.37
2019-01-19T02:40:58.278Z,-0.37
2019-01-19T02:42:08.347Z,-0.4
2019-01-19T02:43:18.697Z,-0.3
2019-01-19T02:44:28.768Z,-0.37
2019-01-19T02:45:38.859Z,-0.43
2019-01-19T02:46:48.916Z,-0.41
2019-01-19T02:47:59.212Z,-0.41
2019-01-19T02:49:09.471Z,-0.43
2019-01-19T02:50:19.788Z,-0.45
2019-01-19T02:51:29.877Z,-0.54
2019-01-19T02:52:39.930Z,-0.51
2019-01-19T02:53:50.018Z,-0.49
2019-01-19T02:55:00.125Z,-0.51
2019-01-19T02:56:12.104Z,-0.56
2019-01-19T02:57:22.261Z,-0.48
2019-01-19T02:58:32.422Z,-0.55
2019-01-19T02:59:42.464Z,-0.55
2019-01-19T03:00:52.539Z,-0.62
2019-01-19T03:02:03.871Z,-0.62
2019-01-19T03:03:13.934Z,-0.56
2019-01-19T03:35:03.360Z,-3.72
2019-01-19T03:36:13.419Z,-3.71
2019-01-19T03:37:23.473Z,-3.71
2019-01-19T03:38:33.539Z,-3.75
2019-01-19T03:39:43.883Z,-3.72
2019-01-19T03:40:54.266Z,-3.58
2019-01-19T03:42:04.327Z,-3.54
2019-01-19T03:43:14.394Z,-3.4
2019-01-19T03:44:24.440Z,-3.28
2019-01-19T03:45:34.517Z,-3.18
2019-01-19T03:46:44.576Z,-3
2019-01-19T03:47:54.639Z,-2.88
2019-01-19T03:49:04.426Z,-2.7
2019-01-19T03:50:14.240Z,-2.65
2019-01-19T03:51:24.555Z,-2.53
2019-01-19T03:52:34.378Z,-2.39
2019-01-19T03:53:44.640Z,-2.25
2019-01-19T03:54:54.804Z,-2.15
2019-01-19T03:56:04.612Z,-2.06
2019-01-19T03:57:14.175Z,-2.06
2019-01-19T03:58:24.471Z,-1.99
2019-01-19T03:59:34.568Z,-1.76
2019-01-19T04:00:44.741Z,-1.74
2019-01-19T04:01:54.904Z,-1.76
2019-01-19T04:03:04.741Z,-1.67
2019-01-19T04:04:14.459Z,-1.6
2019-01-19T04:05:24.511Z,-1.56
2019-01-19T04:06:34.593Z,-1.55
2019-01-19T04:07:44.435Z,-1.55
2019-01-19T04:08:54.304Z,-1.52
2019-01-19T04:10:04.351Z,-1.42
2019-01-19T04:11:14.469Z,-1.4
2019-01-19T04:12:24.543Z,-1.32
2019-01-19T04:13:34.607Z,-1.3
2019-01-19T04:14:44.670Z,-1.25
2019-01-19T04:15:54.788Z,-1.31
2019-01-19T04:17:04.874Z,-1.35
2019-01-19T04:18:14.934Z,-1.21
2019-01-19T04:19:25.008Z,-1.27
2019-01-19T04:20:34.838Z,-1.21
2019-01-19T04:21:44.912Z,-1.24
2019-01-19T04:22:54.208Z,-1.3
2019-01-19T04:24:04.273Z,-1.27
2019-01-19T04:25:14.066Z,-1.24
2019-01-19T04:26:24.352Z,-1.22
2019-01-19T04:27:34.427Z,-1.22
2019-01-19T04:28:44.489Z,-1.24
2019-01-19T04:29:54.561Z,-1.25
2019-01-19T04:31:04.790Z,-1.17
2019-01-19T04:32:14.862Z,-1.16
2019-01-19T04:33:24.511Z,-1.14
2019-01-19T04:34:34.633Z,-1.04
2019-01-19T04:35:44.455Z,-1.06
2019-01-19T04:36:54.513Z,-1.03
2019-01-19T04:38:04.632Z,-1.17
2019-01-19T04:39:14.689Z,-1.06
2019-01-19T04:40:24.763Z,-1.07
2019-01-19T04:41:34.819Z,-1.03
2019-01-19T04:42:45.104Z,-1.01
2019-01-19T04:43:55.182Z,-1.07
2019-01-19T04:45:05.391Z,-1.1
2019-01-19T04:46:15.442Z,-1.04
2019-01-19T04:47:25.510Z,-1.13
2019-01-19T04:48:35.351Z,-1.04
2019-01-19T04:49:45.142Z,-1.13
2019-01-19T04:50:55.200Z,-1.25
2019-01-19T04:52:06.575Z,-1.24
2019-01-19T04:53:16.382Z,-1.28
2019-01-19T04:54:26.447Z,-1.22
2019-01-19T04:55:36.507Z,-1.27
2019-01-19T04:56:46.570Z,-1.19
2019-01-19T04:57:56.615Z,-1.28
2019-01-19T04:59:06.668Z,-1.25
2019-01-19T05:00:17.882Z,-1.28
2019-01-19T05:01:28.408Z,-1.27
2019-01-19T05:02:38.478Z,-1.22
2019-01-19T05:03:48.286Z,-1.31
2019-01-19T05:04:58.361Z,-1.28
2019-01-19T05:06:16.882Z,-1.22
2019-01-19T05:07:35.917Z,-1.27
2019-01-19T05:08:46.013Z,-1.21
2019-01-19T05:09:55.807Z,-1.24
2019-01-19T05:11:07.718Z,-1.3
2019-01-19T05:12:17.514Z,-1.25
2019-01-19T05:13:27.360Z,-1.24
2019-01-19T05:14:37.436Z,-1.22
2019-01-19T05:15:47.294Z,-1.24
2019-01-19T05:16:57.099Z,-1.25
2019-01-19T05:18:08.038Z,-1.24
2019-01-19T05:19:17.380Z,-1.34
2019-01-19T05:20:26.939Z,-1.28
2019-01-19T05:21:36.984Z,-1.3
2019-01-19T05:22:47.036Z,-1.31
2019-01-19T05:23:57.104Z,-1.34
2019-01-19T05:25:07.222Z,-1.31
2019-01-19T05:26:17.296Z,-1.28
2019-01-19T05:27:27.352Z,-1.34
2019-01-19T05:28:37.658Z,-1.3
2019-01-19T05:29:47.727Z,-1.3
2019-01-19T05:30:59.205Z,-1.28
2019-01-19T05:32:09.584Z,-1.32
2019-01-19T05:33:19.407Z,-1.31
2019-01-19T05:34:29.459Z,-1.38
2019-01-19T05:35:39.520Z,-1.35
2019-01-19T05:36:49.612Z,-1.32
2019-01-19T05:38:01.862Z,-1.37
2019-01-19T05:39:12.340Z,-1.43
2019-01-19T05:40:22.203Z,-1.34
2019-01-19T05:41:32.064Z,-1.46
2019-01-19T05:42:41.903Z,-1.45
2019-01-19T05:43:52.207Z,-1.43
2019-01-19T05:45:02.003Z,-1.45
2019-01-19T05:46:12.078Z,-1.42
2019-01-19T05:47:29.212Z,-1.3
2019-01-19T05:48:39.384Z,-1.32
2019-01-19T05:49:49.695Z,-1.28
2019-01-19T05:50:59.535Z,-1.3
2019-01-19T05:52:09.336Z,-1.27
2019-01-19T05:53:19.183Z,-1.25
2019-01-19T05:54:29.280Z,-1.24
2019-01-19T05:55:39.275Z,-1.28
2019-01-19T05:56:49.342Z,-1.25
2019-01-19T05:57:59.400Z,-1.24
2019-01-19T05:59:10.301Z,-1.28
2019-01-19T06:00:20.935Z,-1.27
2019-01-19T06:01:31.091Z,-1.27
2019-01-19T06:02:40.919Z,-1.27
2019-01-19T06:03:51.012Z,-1.27
2019-01-19T06:05:02.478Z,-1.3
2019-01-19T06:06:12.546Z,-1.25
2019-01-19T06:07:22.343Z,-1.21
2019-01-19T06:08:32.502Z,-1.25
2019-01-19T06:09:42.766Z,-1.24
2019-01-19T06:10:52.576Z,-1.16
2019-01-19T06:12:02.381Z,-1.06
2019-01-19T06:13:12.424Z,-1.09
2019-01-19T06:14:22.225Z,-1.13
2019-01-19T06:15:32.276Z,-1.16
2019-01-19T06:16:42.387Z,-1.17
2019-01-19T06:17:52.595Z,-1.16
2019-01-19T06:19:02.811Z,-1.1
2019-01-19T06:20:12.882Z,-1.17
2019-01-19T06:21:23.516Z,-1.17
2019-01-19T06:22:33.649Z,-1.14
2019-01-19T06:23:43.853Z,-1.17
2019-01-19T06:24:53.932Z,-1.14
2019-01-19T06:26:03.994Z,-1.1
2019-01-19T06:27:14.048Z,-1.13
2019-01-19T06:28:24.168Z,-1.1
2019-01-19T06:29:34.696Z,-1.11
2019-01-19T06:30:45.065Z,-1.09
2019-01-19T06:31:55.467Z,-1.09
2019-01-19T06:33:07.596Z,-1.09
2019-01-19T06:34:17.661Z,-1.1
2019-01-19T06:35:27.710Z,-1.03
2019-01-19T06:36:37.817Z,-1.14
2019-01-19T06:37:47.900Z,-1.09
2019-01-19T06:38:57.967Z,-1.13
2019-01-19T06:40:08.737Z,-1.06
2019-01-19T06:41:18.555Z,-1.11
2019-01-19T06:42:28.619Z,-1.1
2019-01-19T06:43:38.770Z,-1.09
2019-01-19T06:44:49.162Z,-1.06
2019-01-19T06:45:59.414Z,-0.98
2019-01-19T06:47:09.283Z,-0.93
2019-01-19T06:48:19.323Z,-0.93
2019-01-19T06:49:29.123Z,-0.92
2019-01-19T06:50:39.427Z,-0.95
2019-01-19T06:51:49.370Z,-0.93
2019-01-19T06:52:59.731Z,-0.93
2019-01-19T06:54:09.804Z,-0.96
2019-01-19T06:55:19.870Z,-0.93
2019-01-19T06:56:29.938Z,-0.89
2019-01-19T06:57:39.499Z,-0.92
2019-01-19T06:58:49.614Z,-0.92
2019-01-19T06:59:59.695Z,-0.85
2019-01-19T07:01:09.855Z,-0.87
2019-01-19T07:02:19.929Z,-0.87
2019-01-19T07:03:30.098Z,-0.76
2019-01-19T07:04:40.159Z,-0.79
2019-01-19T07:05:50.218Z,-0.69
2019-01-19T07:07:07.394Z,-0.59
2019-01-19T07:08:17.251Z,-0.56
2019-01-19T07:09:28.106Z,-0.59
2019-01-19T07:10:38.198Z,-0.43
2019-01-19T07:11:48.304Z,-0.45
2019-01-19T07:12:58.375Z,-0.38
2019-01-19T07:14:08.883Z,-0.28
2019-01-19T07:15:18.688Z,-0.23
2019-01-19T07:16:28.833Z,-0.2
2019-01-19T07:17:38.925Z,-0.15
2019-01-19T07:18:48.999Z,-0.13
2019-01-19T07:19:59.051Z,-0.01
2019-01-19T07:21:09.298Z,-0.02
2019-01-19T07:22:19.445Z,0.05
2019-01-19T07:23:29.510Z,0.13
2019-01-19T07:24:39.312Z,0.16
2019-01-19T07:25:50.427Z,0.2
2019-01-19T07:27:00.786Z,0.24
2019-01-19T07:28:11.018Z,0.38
2019-01-19T07:29:20.814Z,0.38
2019-01-19T07:30:30.918Z,0.39
2019-01-19T07:31:40.978Z,0.48
2019-01-19T07:32:51.079Z,0.48
2019-01-19T07:34:01.717Z,0.61
2019-01-19T07:35:11.529Z,0.6
2019-01-19T07:36:21.592Z,0.56
2019-01-19T07:37:31.663Z,0.58
2019-01-19T07:38:41.736Z,0.5
2019-01-19T07:39:51.797Z,0.61
2019-01-19T07:41:01.605Z,0.63
2019-01-19T07:42:11.419Z,0.67
2019-01-19T07:43:21.476Z,0.67
2019-01-19T07:44:31.555Z,0.84
2019-01-19T07:45:41.650Z,0.85
2019-01-19T07:46:58.373Z,0.82
2019-01-19T07:48:09.472Z,0.93
2019-01-19T07:49:19.284Z,1.11
2019-01-19T07:50:29.406Z,1.02
2019-01-19T07:51:39.462Z,1.12
2019-01-19T07:52:49.768Z,1.2
2019-01-19T07:53:59.593Z,1.22
2019-01-19T07:55:09.658Z,1.32
2019-01-19T07:56:19.759Z,1.32
2019-01-19T07:57:36.499Z,1.51
2019-01-19T07:58:46.549Z,1.58
2019-01-19T07:59:56.617Z,1.54
2019-01-19T08:01:06.873Z,1.71
2019-01-19T08:02:17.080Z,1.74
2019-01-19T08:03:26.875Z,1.71
2019-01-19T08:04:37.176Z,1.79
2019-01-19T08:05:47.237Z,1.84
2019-01-19T08:06:57.293Z,1.78
2019-01-19T08:08:08.519Z,1.75
2019-01-19T08:09:18.605Z,1.71
2019-01-19T08:10:28.647Z,1.83
2019-01-19T08:11:38.713Z,1.72
2019-01-19T08:12:48.774Z,1.83
2019-01-19T08:13:58.672Z,1.86
2019-01-19T08:15:08.728Z,1.78
2019-01-19T08:16:18.786Z,1.82
2019-01-19T08:17:29.046Z,1.69
2019-01-19T08:18:39.115Z,1.82
2019-01-19T08:19:49.175Z,1.72
2019-01-19T08:20:59.287Z,1.79
2019-01-19T08:22:09.399Z,1.83
2019-01-19T08:23:19.559Z,1.84
2019-01-19T08:24:29.657Z,1.74
2019-01-19T08:25:39.686Z,1.78
2019-01-19T08:26:49.753Z,1.76
2019-01-19T08:28:01.310Z,1.84
2019-01-19T08:29:11.468Z,1.87
2019-01-19T08:30:21.583Z,1.93
2019-01-19T08:31:31.657Z,2.01
2019-01-19T08:32:41.770Z,2.08
2019-01-19T08:33:51.825Z,2.18
2019-01-19T08:35:03.539Z,2.23
2019-01-19T08:36:13.605Z,2.3
2019-01-19T08:37:30.297Z,2.31
2019-01-19T08:38:40.365Z,2.38
2019-01-19T08:39:50.500Z,2.45
2019-01-19T08:41:01.157Z,2.47
2019-01-19T08:42:11.273Z,2.47
2019-01-19T08:43:21.353Z,2.49
2019-01-19T08:44:31.434Z,2.51
2019-01-19T08:45:41.241Z,2.59
2019-01-19T08:46:51.047Z,2.81
2019-01-19T08:48:01.124Z,3.11
2019-01-19T08:49:11.222Z,3.24
2019-01-19T08:50:21.605Z,3.35
2019-01-19T08:51:31.659Z,3.46
2019-01-19T08:52:41.762Z,3.46
2019-01-19T08:53:51.838Z,3.34
2019-01-19T08:55:03.036Z,3.35
2019-01-19T08:56:13.101Z,3.51
2019-01-19T08:57:22.966Z,3.56
2019-01-19T08:58:33.052Z,3.51
2019-01-19T08:59:42.916Z,3.63
2019-01-19T09:00:52.781Z,3.72
2019-01-19T09:02:03.067Z,3.64
2019-01-19T09:03:12.867Z,3.72
2019-01-19T09:04:22.868Z,3.82
2019-01-19T09:05:32.979Z,3.63
2019-01-19T09:06:43.083Z,3.63
2019-01-19T09:07:53.161Z,3.58
2019-01-19T09:09:03.555Z,3.51
2019-01-19T09:10:13.647Z,3.43
2019-01-19T09:11:23.811Z,3.4
2019-01-19T09:12:34.025Z,3.39
2019-01-19T09:13:44.165Z,3.39
2019-01-19T09:14:54.233Z,3.42
2019-01-19T09:16:04.321Z,3.42
2019-01-19T09:17:14.386Z,3.4
2019-01-19T09:18:24.370Z,3.49
2019-01-19T09:19:34.986Z,3.53
2019-01-19T09:20:45.084Z,3.56
2019-01-19T09:21:55.145Z,3.56
2019-01-19T09:23:04.978Z,3.51
2019-01-19T09:24:15.049Z,3.48
2019-01-19T09:25:25.186Z,3.48
2019-01-19T09:26:35.271Z,3.74
2019-01-19T09:27:45.425Z,3.76
2019-01-19T09:28:55.620Z,3.72
2019-01-19T09:30:07.060Z,3.76
2019-01-19T09:31:17.177Z,3.93
2019-01-19T09:32:27.012Z,3.97
2019-01-19T09:33:37.091Z,4.03
2019-01-19T09:34:47.166Z,4.14
2019-01-19T09:35:57.249Z,4.15
2019-01-19T09:37:07.181Z,4.18
2019-01-19T09:38:17.251Z,4.3
2019-01-19T09:39:27.537Z,4.21
2019-01-19T09:40:37.618Z,4.35
2019-01-19T09:41:47.688Z,4.24
2019-01-19T09:43:12.171Z,4.32
2019-01-19T09:44:23.651Z,4.33
2019-01-19T09:45:35.104Z,4.32
2019-01-19T09:46:45.171Z,4.33
2019-01-19T09:47:55.301Z,4.32
2019-01-19T09:49:05.432Z,4.33
2019-01-19T09:50:15.504Z,4.33
2019-01-19T09:51:25.308Z,4.36
2019-01-19T09:52:35.107Z,4.39
2019-01-19T09:53:44.968Z,4.51
2019-01-19T09:54:55.031Z,4.53
2019-01-19T09:56:05.173Z,4.6
2019-01-19T09:57:15.308Z,4.65
2019-01-19T09:58:25.132Z,4.71
2019-01-19T09:59:34.939Z,4.66
2019-01-19T10:00:50.511Z,4.53
2019-01-19T10:02:00.871Z,4.6
2019-01-19T10:03:10.977Z,4.54
2019-01-19T10:04:21.735Z,4.47
2019-01-19T10:05:31.785Z,4.6
2019-01-19T10:06:41.855Z,4.58
2019-01-19T10:08:06.247Z,4.64
2019-01-19T10:09:16.331Z,4.65
2019-01-19T10:10:26.463Z,4.61
2019-01-19T10:11:36.316Z,4.64
2019-01-19T10:12:46.410Z,4.6
2019-01-19T10:13:56.517Z,4.6
2019-01-19T10:15:06.358Z,4.65
2019-01-19T10:16:16.505Z,4.69
2019-01-19T10:17:26.573Z,4.75
2019-01-19T10:18:36.638Z,4.83
2019-01-19T10:19:46.822Z,4.88
2019-01-19T10:20:58.602Z,5
2019-01-19T10:22:08.707Z,5.08
2019-01-19T10:23:18.804Z,5.05
2019-01-19T10:24:28.913Z,5.27
2019-01-19T10:25:39.049Z,5.24
2019-01-19T10:26:49.227Z,5.28
2019-01-19T10:27:59.412Z,5.37
2019-01-19T10:29:09.971Z,5.51
2019-01-19T10:30:20.061Z,5.57
2019-01-19T10:31:30.373Z,5.52
2019-01-19T10:32:40.498Z,5.59
2019-01-19T10:33:50.586Z,5.6
2019-01-19T10:35:00.711Z,5.62
2019-01-19T10:36:10.799Z,5.69
2019-01-19T10:37:20.990Z,5.75
2019-01-19T10:38:31.068Z,5.78
2019-01-19T10:39:41.139Z,5.85
2019-01-19T10:40:51.210Z,5.87
2019-01-19T10:42:01.071Z,6.03
2019-01-19T10:43:11.200Z,5.89
2019-01-19T10:44:21.003Z,5.87
2019-01-19T10:45:31.087Z,5.85
2019-01-19T10:46:40.913Z,5.87
2019-01-19T10:47:52.557Z,5.69
2019-01-19T10:49:02.460Z,5.66
2019-01-19T10:50:12.563Z,5.66
2019-01-19T10:51:22.391Z,5.59
2019-01-19T10:52:32.468Z,5.55
2019-01-19T10:53:42.538Z,5.49
2019-01-19T10:54:52.611Z,5.46
2019-01-19T10:56:02.528Z,5.49
2019-01-19T10:57:12.367Z,5.45
2019-01-19T10:58:22.451Z,5.49
2019-01-19T10:59:32.274Z,5.52
2019-01-19T11:00:42.397Z,5.57
2019-01-19T11:01:52.490Z,5.48
2019-01-19T11:03:02.302Z,5.51
2019-01-19T11:04:12.589Z,5.48
2019-01-19T11:05:22.820Z,5.45
2019-01-19T11:06:32.881Z,5.44
2019-01-19T11:07:42.957Z,5.45
2019-01-19T11:08:53.013Z,5.46
2019-01-19T11:10:05.569Z,5.52
2019-01-19T11:11:15.645Z,5.55
2019-01-19T11:12:25.579Z,5.48
2019-01-19T11:13:35.632Z,5.46
2019-01-19T11:14:45.741Z,5.46
2019-01-19T11:15:56.080Z,5.45
2019-01-19T11:17:05.647Z,5.48
2019-01-19T11:18:15.909Z,5.59
2019-01-19T11:19:25.730Z,5.59
2019-01-19T11:20:35.536Z,5.51
2019-01-19T11:21:45.745Z,5.6
2019-01-19T11:22:56.125Z,5.64
2019-01-19T11:24:06.640Z,5.62
2019-01-19T11:25:16.459Z,5.6
2019-01-19T11:26:26.512Z,5.55
2019-01-19T11:27:36.430Z,5.54
2019-01-19T11:28:47.465Z,5.52
2019-01-19T11:29:57.658Z,5.55
2019-01-19T11:31:08.104Z,5.59
2019-01-19T11:32:18.203Z,5.54
2019-01-19T11:33:28.277Z,5.7
2019-01-19T11:34:38.364Z,5.67
2019-01-19T11:35:48.234Z,5.63
2019-01-19T11:36:58.065Z,5.67
2019-01-19T11:38:20.013Z,5.62
2019-01-19T11:39:30.319Z,5.64
2019-01-19T11:40:40.429Z,5.73
2019-01-19T11:41:50.238Z,5.64
2019-01-19T11:43:03.254Z,5.7
2019-01-19T11:44:13.321Z,5.72
2019-01-19T11:45:23.413Z,5.69
2019-01-19T11:46:33.524Z,5.69
2019-01-19T11:47:43.619Z,5.67
2019-01-19T11:48:53.717Z,5.6
2019-01-19T11:50:03.823Z,5.72
2019-01-19T11:51:13.988Z,5.75
2019-01-19T11:52:23.827Z,5.7
2019-01-19T11:53:33.904Z,5.78
2019-01-19T11:54:43.978Z,5.66
2019-01-19T11:55:54.362Z,5.72
2019-01-19T11:57:05.537Z,5.7
2019-01-19T11:58:15.595Z,5.77
2019-01-19T11:59:25.455Z,5.67
2019-01-19T12:00:35.516Z,5.78
2019-01-19T12:01:45.600Z,5.7
2019-01-19T12:02:55.441Z,5.7
2019-01-19T12:04:06.615Z,5.67
2019-01-19T12:05:16.686Z,5.77
2019-01-19T12:06:26.837Z,5.67
2019-01-19T12:07:36.916Z,5.78
2019-01-19T12:08:47.099Z,5.66
2019-01-19T12:09:57.193Z,5.66
2019-01-19T12:11:07.049Z,5.59
2019-01-19T12:12:17.129Z,5.52
2019-01-19T12:13:27.200Z,5.46
2019-01-19T12:14:37.261Z,5.49
2019-01-19T12:15:47.360Z,5.52
2019-01-19T12:16:57.443Z,5.42
2019-01-19T12:18:07.858Z,5.49
2019-01-19T12:19:18.832Z,5.49
2019-01-19T12:20:28.913Z,5.41
2019-01-19T12:21:38.973Z,5.36
2019-01-19T12:22:48.800Z,5.28
2019-01-19T12:23:58.393Z,5.28
2019-01-19T12:25:08.763Z,5.15
2019-01-19T12:26:18.829Z,5.18
2019-01-19T12:27:28.915Z,5.09
2019-01-19T12:28:38.767Z,5.02
2019-01-19T12:29:48.306Z,5
2019-01-19T12:30:58.134Z,5.08
2019-01-19T12:32:08.487Z,4.94
2019-01-19T12:33:18.563Z,4.98
2019-01-19T12:34:28.681Z,5.02
2019-01-19T12:35:38.778Z,4.91
2019-01-19T12:36:48.862Z,4.83
2019-01-19T12:37:58.937Z,4.84
2019-01-19T12:39:09.013Z,4.85
2019-01-19T12:40:19.134Z,4.88
2019-01-19T12:41:29.183Z,4.88
2019-01-19T12:42:39.255Z,4.85
2019-01-19T12:43:49.340Z,4.83
2019-01-19T12:44:59.176Z,4.78
2019-01-19T12:46:10.039Z,4.72
2019-01-19T12:47:20.159Z,4.76
2019-01-19T12:48:30.318Z,4.66
2019-01-19T12:49:40.400Z,4.75
2019-01-19T12:50:50.905Z,4.72
2019-01-19T12:52:00.959Z,4.74
2019-01-19T12:53:11.024Z,4.65
2019-01-19T12:54:21.342Z,4.64
2019-01-19T12:55:31.471Z,4.57
2019-01-19T12:56:41.277Z,4.51
2019-01-19T12:57:51.426Z,4.53
2019-01-19T12:59:02.314Z,4.5
2019-01-19T13:00:12.645Z,4.6
2019-01-19T13:01:22.952Z,4.56
2019-01-19T13:02:32.775Z,4.57
2019-01-19T13:03:42.908Z,4.61
2019-01-19T13:04:52.952Z,4.66
2019-01-19T13:06:03.510Z,4.56
2019-01-19T13:07:13.570Z,4.54
2019-01-19T13:08:23.655Z,4.5
2019-01-19T13:09:39.894Z,4.48
2019-01-19T13:10:49.992Z,4.6
2019-01-19T13:11:59.812Z,4.44
2019-01-19T13:13:10.154Z,4.5
2019-01-19T13:14:20.024Z,4.51
2019-01-19T13:15:30.119Z,4.54
2019-01-19T13:16:39.930Z,4.42
2019-01-19T13:17:49.836Z,4.35
2019-01-19T13:18:59.635Z,4.39
2019-01-19T13:20:09.743Z,4.4
2019-01-19T13:21:19.818Z,4.35
2019-01-19T13:22:29.632Z,4.39
2019-01-19T13:23:45.075Z,4.38
2019-01-19T13:24:55.374Z,4.39
2019-01-19T13:26:05.671Z,4.46
2019-01-19T13:27:15.790Z,4.48
2019-01-19T13:28:25.865Z,4.36
2019-01-19T13:29:35.937Z,4.44
2019-01-19T13:30:46.145Z,4.32
2019-01-19T13:31:56.199Z,4.2
2019-01-19T13:33:08.097Z,4.29
2019-01-19T13:34:18.181Z,4.2
2019-01-19T13:35:28.256Z,4.22
2019-01-19T13:36:38.119Z,4.2
2019-01-19T13:37:48.220Z,4.26
2019-01-19T13:38:58.320Z,4.22
2019-01-19T13:40:08.447Z,4.26
2019-01-19T13:41:18.354Z,4.15
2019-01-19T13:42:28.409Z,4.22
2019-01-19T13:43:38.465Z,4.24
2019-01-19T13:44:48.250Z,4.28
2019-01-19T13:45:58.312Z,4.15
2019-01-19T13:47:08.122Z,4.2
2019-01-19T13:48:18.190Z,4.15
2019-01-19T13:49:28.034Z,4.08
2019-01-19T13:50:37.912Z,4.03
2019-01-19T13:51:47.964Z,3.96
2019-01-19T13:53:01.390Z,3.92
2019-01-19T13:54:11.809Z,3.94
2019-01-19T13:55:22.161Z,3.99
2019-01-19T13:56:32.328Z,3.93
2019-01-19T13:57:42.372Z,3.92
2019-01-19T13:58:52.140Z,3.9
2019-01-19T14:00:02.445Z,3.86
2019-01-19T14:01:12.313Z,3.92
2019-01-19T14:02:22.488Z,3.84
2019-01-19T14:03:32.284Z,3.82
2019-01-19T14:04:42.098Z,3.81
2019-01-19T14:05:52.216Z,3.72
2019-01-19T14:07:02.306Z,3.63
2019-01-19T14:08:12.388Z,3.72
2019-01-19T14:09:22.436Z,3.76
2019-01-19T14:10:32.507Z,3.72
2019-01-19T14:11:42.633Z,3.61
2019-01-19T14:12:52.711Z,3.74
2019-01-19T14:14:03.101Z,3.74
2019-01-19T14:15:13.172Z,3.64
2019-01-19T14:16:23.251Z,3.64
2019-01-19T14:17:33.091Z,3.66
2019-01-19T14:18:43.016Z,3.46
2019-01-19T14:19:53.110Z,3.57
2019-01-19T14:21:03.181Z,3.57
2019-01-19T14:22:12.990Z,3.49
2019-01-19T14:23:23.050Z,3.42
2019-01-19T14:24:33.095Z,3.42
2019-01-19T14:25:43.299Z,3.45
2019-01-19T14:26:53.364Z,3.42
2019-01-19T14:28:03.166Z,3.34
2019-01-19T14:29:13.306Z,3.4
2019-01-19T14:30:23.133Z,3.27
2019-01-19T14:31:33.217Z,3.35
2019-01-19T14:32:43.295Z,3.32
2019-01-19T14:33:53.375Z,3.35
2019-01-19T14:35:03.495Z,3.3
2019-01-19T14:36:13.799Z,3.37
2019-01-19T14:37:24.086Z,3.4
2019-01-19T14:38:34.082Z,3.3
2019-01-19T14:39:44.182Z,3.34
2019-01-19T14:40:54.271Z,3.32
2019-01-19T14:42:04.351Z,3.32
2019-01-19T14:43:14.425Z,3.35
2019-01-19T14:44:24.504Z,3.29
2019-01-19T14:45:34.589Z,3.23
2019-01-19T14:46:44.767Z,3.26
2019-01-19T14:47:54.858Z,3.23
2019-01-19T14:49:04.926Z,3.3
2019-01-19T14:50:14.997Z,3.3
2019-01-19T14:51:24.825Z,3.37
2019-01-19T14:52:34.965Z,3.37
2019-01-19T14:53:45.198Z,3.32
2019-01-19T14:54:55.378Z,3.29
2019-01-19T14:56:06.594Z,3.24
2019-01-19T14:57:16.560Z,3.24
2019-01-19T14:58:27.129Z,3.32
2019-01-19T14:59:36.918Z,3.14
2019-01-19T15:00:46.491Z,3.13
2019-01-19T15:01:56.560Z,3.16
2019-01-19T15:03:07.726Z,3.14
2019-01-19T15:04:17.800Z,3.17
2019-01-19T15:05:27.872Z,3.19
2019-01-19T15:06:37.934Z,3.09
2019-01-19T15:07:48.044Z,3.13
2019-01-19T15:09:03.755Z,3.14
2019-01-19T15:10:14.134Z,3.13
2019-01-19T15:11:23.950Z,3.11
2019-01-19T15:12:34.021Z,3.14
2019-01-19T15:13:43.832Z,3.16
2019-01-19T15:14:53.922Z,3.09
2019-01-19T15:16:04.038Z,3.13
2019-01-19T15:17:13.889Z,3.11
2019-01-19T15:18:23.967Z,3.13
2019-01-19T15:19:34.140Z,3.13
2019-01-19T15:20:44.222Z,3.16
2019-01-19T15:21:54.358Z,3.13
2019-01-19T15:23:04.456Z,3.05
2019-01-19T15:24:14.532Z,2.99
2019-01-19T15:25:24.106Z,3.03
2019-01-19T15:26:33.948Z,3.11
2019-01-19T15:27:44.078Z,3.02
2019-01-19T15:28:54.367Z,2.99
2019-01-19T15:30:04.455Z,2.98
2019-01-19T15:31:14.293Z,3.01
2019-01-19T15:32:24.383Z,3.01
2019-01-19T15:33:34.449Z,3.01
2019-01-19T15:34:44.539Z,2.99
2019-01-19T15:35:54.848Z,3.08
2019-01-19T15:37:05.482Z,3.09
2019-01-19T15:38:15.338Z,3.06
2019-01-19T15:39:25.164Z,3.09
2019-01-19T15:40:35.269Z,3.09
2019-01-19T15:41:45.339Z,3.03
2019-01-19T15:42:55.425Z,3.09
2019-01-19T15:44:05.549Z,2.99
2019-01-19T15:45:15.626Z,3.03
2019-01-19T15:46:25.707Z,3.09
2019-01-19T15:47:35.781Z,3.03
2019-01-19T15:48:45.913Z,2.98
2019-01-19T15:49:56.001Z,2.93
2019-01-19T15:51:05.889Z,2.96
2019-01-19T15:52:15.971Z,2.96
2019-01-19T15:53:26.048Z,2.96
2019-01-19T15:54:35.870Z,2.98
2019-01-19T15:55:45.959Z,2.95
2019-01-19T15:56:56.338Z,2.91
2019-01-19T15:58:08.274Z,2.96
2019-01-19T15:59:18.073Z,3.02